createdAt,value
2018-02-02T00:01:20.836Z,18.38
2018-02-02T00:03:51.082Z,17.33
2018-02-02T00:06:26.100Z,17.02
2018-02-02T00:08:55.330Z,18.27
2018-02-02T00:11:24.422Z,17.15
2018-02-02T00:13:54.168Z,17.92
2018-02-02T00:16:24.819Z,18.23
2018-02-02T00:18:55.219Z,18.27
2018-02-02T00:21:25.937Z,20.67
2018-02-02T00:23:56.087Z,18.55
2018-02-02T00:26:26.727Z,18.02
2018-02-02T00:28:57.307Z,17.27
2018-02-02T00:31:28.239Z,17.77
2018-02-02T00:33:59.119Z,18.48
2018-02-02T00:36:29.791Z,18.42
2018-02-02T00:39:00.310Z,18.33
2018-02-02T00:41:30.536Z,17.82
2018-02-02T00:44:00.963Z,19.83
2018-02-02T00:46:31.746Z,19.25
2018-02-02T00:49:02.456Z,19.17
2018-02-02T00:51:38.167Z,20.02
2018-02-02T00:54:07.407Z,18.57
2018-02-02T00:56:38.212Z,18.90
2018-02-02T00:59:08.832Z,19.05
2018-02-02T01:01:39.723Z,19.92
2018-02-02T01:04:10.536Z,18.10
2018-02-02T01:06:40.907Z,18.87
2018-02-02T01:09:11.730Z,18.23
2018-02-02T01:11:43.444Z,18.56
2018-02-02T01:14:13.904Z,18.02
2018-02-02T01:16:47.665Z,19.05
2018-02-02T01:19:16.933Z,20.23
2018-02-02T01:21:46.428Z,21.37
2018-02-02T01:24:16.182Z,20.90
2018-02-02T01:26:47.459Z,21.26
2018-02-02T01:29:19.035Z,20.82
2018-02-02T01:31:49.468Z,20.40
2018-02-02T01:34:19.911Z,20.42
2018-02-02T01:36:50.771Z,19.73
2018-02-02T01:39:21.674Z,19.42
2018-02-02T01:41:52.504Z,20.55
2018-02-02T01:44:24.022Z,20.14
2018-02-02T01:46:54.855Z,20.00
2018-02-02T01:49:25.787Z,18.98
2018-02-02T01:51:56.599Z,18.87
2018-02-02T01:54:27.927Z,20.02
2018-02-02T01:56:59.271Z,17.74
2018-02-02T01:59:29.878Z,18.35
2018-02-02T02:02:00.699Z,18.52
2018-02-02T02:04:31.708Z,20.23
2018-02-02T02:07:01.919Z,24.65
2018-02-02T02:09:32.850Z,23.08
2018-02-02T02:12:03.690Z,23.17
2018-02-02T02:14:34.661Z,20.37
2018-02-02T02:17:05.590Z,19.37
2018-02-02T02:19:36.887Z,18.90
2018-02-02T02:22:07.674Z,17.65
2018-02-02T02:24:38.927Z,17.62
2018-02-02T02:27:09.367Z,18.54
2018-02-02T02:29:39.942Z,17.67
2018-02-02T02:32:10.749Z,18.48
2018-02-02T02:34:41.627Z,19.27
2018-02-02T02:37:12.467Z,19.60
2018-02-02T02:39:43.840Z,18.96
2018-02-02T02:42:14.659Z,17.35
2018-02-02T02:44:45.640Z,17.75
2018-02-02T02:47:16.515Z,17.23
2018-02-02T02:49:47.891Z,16.98
2018-02-02T02:52:18.717Z,16.90
2018-02-02T02:54:49.643Z,15.63
2018-02-02T02:57:20.704Z,17.62
2018-02-02T02:59:51.642Z,17.48
2018-02-02T03:02:22.510Z,17.05
2018-02-02T03:04:52.948Z,16.80
2018-02-02T03:07:23.755Z,16.05
2018-02-02T03:09:54.673Z,15.57
2018-02-02T03:12:25.158Z,17.02
2018-02-02T03:14:58.479Z,15.85
2018-02-02T03:17:27.595Z,14.93
2018-02-02T03:19:58.030Z,16.45
2018-02-02T03:22:28.477Z,16.38
2018-02-02T03:24:58.325Z,15.90
2018-02-02T03:27:29.830Z,17.10
2018-02-02T03:30:00.762Z,16.73
2018-02-02T03:32:31.596Z,17.35
2018-02-02T03:35:02.354Z,17.04
2018-02-02T03:37:33.822Z,18.56
2018-02-02T03:40:04.103Z,19.30
2018-02-02T03:42:33.950Z,18.60
2018-02-02T03:45:04.883Z,18.02
2018-02-02T03:47:35.680Z,17.04
2018-02-02T03:50:07.134Z,18.48
2018-02-02T03:52:38.342Z,15.68
2018-02-02T03:55:09.866Z,17.08
2018-02-02T03:57:40.930Z,16.90
2018-02-02T04:00:11.867Z,17.20
2018-02-02T04:02:42.715Z,16.98
2018-02-02T04:05:13.603Z,15.80
2018-02-02T04:07:44.290Z,15.06
2018-02-02T04:10:16.275Z,15.00
2018-02-02T04:12:46.909Z,15.55
2018-02-02T04:15:17.767Z,16.02
2018-02-02T04:17:48.823Z,16.00
2018-02-02T04:20:18.638Z,15.32
2018-02-02T04:22:49.867Z,15.40
2018-02-02T04:25:20.747Z,15.60
2018-02-02T04:27:51.560Z,16.27
2018-02-02T04:30:22.840Z,15.28
2018-02-02T04:32:53.682Z,15.23
2018-02-02T04:35:30.698Z,15.77
2018-02-02T04:37:59.746Z,15.90
2018-02-02T04:40:28.806Z,14.82
2018-02-02T04:42:57.928Z,13.77
2018-02-02T04:45:28.369Z,14.38
2018-02-02T04:47:58.283Z,13.88
2018-02-02T04:50:28.855Z,14.38
2018-02-02T04:52:59.727Z,15.23
2018-02-02T04:55:31.019Z,13.18
2018-02-02T04:58:02.064Z,12.73
2018-02-02T05:00:32.894Z,12.82
2018-02-02T05:03:03.434Z,13.88
2018-02-02T05:05:33.875Z,13.32
2018-02-02T05:08:05.089Z,12.70
2018-02-02T05:10:35.451Z,12.48
2018-02-02T05:13:06.203Z,12.73
2018-02-02T05:15:36.764Z,13.05
2018-02-02T05:18:09.726Z,11.80
2018-02-02T05:20:39.314Z,12.35
2018-02-02T05:23:09.155Z,11.68
2018-02-02T05:25:39.827Z,11.55
2018-02-02T05:28:10.709Z,11.73
2018-02-02T05:30:41.515Z,11.68
2018-02-02T05:33:12.896Z,11.34
2018-02-02T05:35:43.331Z,10.28
2018-02-02T05:38:14.071Z,10.55
2018-02-02T05:40:44.875Z,11.20
2018-02-02T05:43:15.728Z,10.75
2018-02-02T05:45:46.524Z,10.95
2018-02-02T05:48:17.828Z,10.68
2018-02-02T05:50:48.327Z,10.58
2018-02-02T05:53:18.924Z,10.68
2018-02-02T05:55:49.465Z,11.05
2018-02-02T05:58:21.106Z,12.04
2018-02-02T06:00:51.747Z,11.30
2018-02-02T06:03:23.162Z,12.00
2018-02-02T06:05:53.849Z,11.75
2018-02-02T06:08:24.834Z,11.42
2018-02-02T06:10:55.279Z,10.96
2018-02-02T06:13:25.899Z,10.63
2018-02-02T06:15:56.702Z,10.80
2018-02-02T06:18:27.359Z,10.65
2018-02-02T06:20:58.774Z,11.20
2018-02-02T06:23:29.644Z,11.40
2018-02-02T06:26:00.495Z,11.27
2018-02-02T06:28:32.020Z,11.66
2018-02-02T06:31:02.836Z,11.20
2018-02-02T06:33:33.995Z,13.38
2018-02-02T06:36:04.762Z,18.02
2018-02-02T06:38:35.316Z,25.24
2018-02-02T06:41:06.504Z,24.03
2018-02-02T06:43:36.989Z,20.98
2018-02-02T06:46:07.494Z,20.14
2018-02-02T06:48:37.970Z,20.90
2018-02-02T06:51:08.825Z,24.55
2018-02-02T06:53:39.346Z,26.38
2018-02-02T06:56:10.361Z,24.35
2018-02-02T06:58:39.691Z,25.45
2018-02-02T07:01:11.056Z,25.30
2018-02-02T07:03:41.903Z,25.35
2018-02-02T07:06:12.714Z,22.55
2018-02-02T07:08:43.268Z,24.92
2018-02-02T07:11:13.848Z,34.92
2018-02-02T07:13:44.740Z,33.20
2018-02-02T07:16:14.945Z,32.54
2018-02-02T07:18:45.455Z,28.87
2018-02-02T07:21:18.369Z,30.08
2018-02-02T07:23:48.171Z,30.35
2018-02-02T07:26:18.796Z,39.20
2018-02-02T07:28:49.663Z,44.83
2018-02-02T07:31:20.417Z,37.98
2018-02-02T07:33:52.063Z,32.46
2018-02-02T07:36:22.871Z,30.55
2018-02-02T07:38:53.735Z,29.95
2018-02-02T07:41:24.607Z,26.90
2018-02-02T07:43:55.547Z,22.87
2018-02-02T07:46:26.848Z,21.36
2018-02-02T07:48:57.443Z,19.33
2018-02-02T07:51:28.830Z,17.58
2018-02-02T07:53:59.726Z,16.58
2018-02-02T07:56:30.960Z,16.28
2018-02-02T07:59:01.573Z,14.60
2018-02-02T08:01:32.072Z,14.60
2018-02-02T08:04:02.859Z,13.45
2018-02-02T08:06:34.167Z,14.38
2018-02-02T08:09:04.479Z,13.10
2018-02-02T08:11:35.843Z,13.72
2018-02-02T08:14:06.864Z,14.20
2018-02-02T08:16:37.708Z,13.32
2018-02-02T08:19:08.793Z,14.45
2018-02-02T08:21:39.630Z,13.90
2018-02-02T08:24:10.986Z,13.34
2018-02-02T08:26:43.198Z,13.79
2018-02-02T08:29:12.494Z,14.03
2018-02-02T08:31:41.551Z,13.52
2018-02-02T08:34:12.428Z,12.34
2018-02-02T08:36:43.766Z,12.80
2018-02-02T08:39:14.584Z,12.02
2018-02-02T08:41:45.940Z,12.34
2018-02-02T08:44:16.788Z,12.80
2018-02-02T08:46:47.757Z,12.63
2018-02-02T08:49:18.587Z,12.60
2018-02-02T08:51:49.991Z,14.64
2018-02-02T08:54:20.781Z,29.20
2018-02-02T08:56:53.633Z,15.98
2018-02-02T08:59:23.259Z,14.38
2018-02-02T09:01:58.810Z,14.98
2018-02-02T09:04:28.677Z,14.15
2018-02-02T09:06:57.753Z,13.75
2018-02-02T09:09:26.917Z,13.62
2018-02-02T09:11:57.497Z,12.62
2018-02-02T09:14:27.875Z,12.02
2018-02-02T09:16:58.886Z,13.05
2018-02-02T09:19:30.005Z,15.38
2018-02-02T09:21:59.649Z,13.07
2018-02-02T09:24:34.478Z,12.35
2018-02-02T09:27:02.587Z,13.07
2018-02-02T09:29:33.807Z,11.74
2018-02-02T09:32:05.382Z,10.22
2018-02-02T09:34:35.891Z,11.38
2018-02-02T09:37:06.784Z,12.20
2018-02-02T09:39:38.076Z,10.86
2018-02-02T09:42:08.908Z,10.65
2018-02-02T09:44:39.773Z,10.45
2018-02-02T09:47:10.478Z,10.40
2018-02-02T09:49:41.960Z,11.46
2018-02-02T09:52:12.864Z,10.77
2018-02-02T09:54:43.713Z,9.25
2018-02-02T09:57:14.579Z,9.75
2018-02-02T09:59:46.090Z,10.64
2018-02-02T10:02:16.899Z,10.50
2018-02-02T10:04:47.807Z,14.93
2018-02-02T10:07:18.735Z,10.73
2018-02-02T10:09:50.291Z,11.02
2018-02-02T10:12:20.517Z,11.64
2018-02-02T10:14:51.111Z,14.93
2018-02-02T10:17:21.755Z,10.93
2018-02-02T10:19:53.113Z,13.76
2018-02-02T10:22:23.935Z,12.37
2018-02-02T10:24:54.849Z,11.77
2018-02-02T10:27:25.740Z,12.68
2018-02-02T10:29:56.621Z,10.43
2018-02-02T10:32:27.965Z,8.06
2018-02-02T10:34:58.887Z,8.50
2018-02-02T10:37:30.039Z,7.95
2018-02-02T10:40:01.106Z,6.22
2018-02-02T10:42:32.633Z,6.07
2018-02-02T10:45:02.543Z,5.40
2018-02-02T10:47:32.994Z,5.37
2018-02-02T10:50:04.528Z,5.40
2018-02-02T10:52:35.055Z,5.80
2018-02-02T10:55:05.921Z,6.30
2018-02-02T10:57:36.733Z,6.40
2018-02-02T11:00:07.653Z,7.03
2018-02-02T11:02:43.914Z,6.00
2018-02-02T11:05:12.982Z,6.04
2018-02-02T11:07:42.194Z,6.20
2018-02-02T11:10:11.747Z,5.95
2018-02-02T11:12:42.315Z,6.00
2018-02-02T11:15:12.675Z,5.54
2018-02-02T11:17:43.622Z,4.20
2018-02-02T11:20:14.115Z,4.68
2018-02-02T11:22:44.940Z,4.22
2018-02-02T11:25:15.861Z,4.47
2018-02-02T11:27:47.135Z,4.45
2018-02-02T11:30:17.479Z,4.26
2018-02-02T11:32:48.176Z,4.28
2018-02-02T11:35:18.781Z,4.37
2018-02-02T11:37:50.181Z,4.30
2018-02-02T11:40:20.854Z,4.22
2018-02-02T11:42:51.808Z,3.92
2018-02-02T11:45:22.279Z,4.46
2018-02-02T11:47:53.360Z,4.12
2018-02-02T11:50:23.907Z,4.62
2018-02-02T11:52:54.800Z,4.80
2018-02-02T11:55:25.583Z,4.20
2018-02-02T11:57:56.043Z,4.25
2018-02-02T12:00:26.742Z,3.78
2018-02-02T12:02:57.615Z,5.30
2018-02-02T12:05:28.716Z,4.34
2018-02-02T12:07:59.585Z,4.15
2018-02-02T12:10:30.838Z,4.36
2018-02-02T12:13:02.319Z,4.30
2018-02-02T12:15:32.955Z,3.58
2018-02-02T12:18:03.796Z,3.72
2018-02-02T12:20:34.143Z,3.45
2018-02-02T12:23:09.615Z,3.90
2018-02-02T12:28:54.185Z,3.20
2018-02-02T12:34:35.900Z,3.12
2018-02-02T12:37:04.607Z,3.13
2018-02-02T12:39:33.599Z,3.10
2018-02-02T12:42:02.595Z,2.72
2018-02-02T12:44:31.703Z,3.60
2018-02-02T12:47:00.775Z,2.90
2018-02-02T12:49:32.383Z,3.00
2018-02-02T12:52:01.471Z,2.78
2018-02-02T12:54:30.536Z,2.80
2018-02-02T12:57:00.051Z,3.00
2018-02-02T12:59:28.872Z,3.30
2018-02-02T13:01:57.813Z,3.17
2018-02-02T13:04:27.016Z,2.97
2018-02-02T13:06:56.181Z,2.87
2018-02-02T13:09:24.957Z,2.90
2018-02-02T13:11:53.898Z,2.80
2018-02-02T13:14:23.081Z,2.77
2018-02-02T13:16:51.870Z,2.97
2018-02-02T13:19:20.770Z,2.70
2018-02-02T13:21:49.653Z,2.90
2018-02-02T13:24:18.734Z,2.92
2018-02-02T13:26:47.992Z,3.00
2018-02-02T13:29:16.739Z,2.53
2018-02-02T13:31:45.529Z,3.00
2018-02-02T13:34:14.259Z,2.93
2018-02-02T13:36:43.264Z,3.10
2018-02-02T13:39:12.084Z,3.10
2018-02-02T13:41:41.779Z,2.70
2018-02-02T13:44:10.921Z,3.10
2018-02-02T13:46:39.943Z,4.27
2018-02-02T13:49:08.812Z,8.13
2018-02-02T13:51:37.743Z,7.87
2018-02-02T13:54:06.819Z,4.43
2018-02-02T13:56:35.754Z,6.47
2018-02-02T13:59:04.713Z,11.93
2018-02-02T14:01:33.682Z,27.13
2018-02-02T14:04:03.428Z,18.17
2018-02-02T14:06:32.494Z,4.72
2018-02-02T14:09:01.584Z,4.05
2018-02-02T14:11:30.716Z,3.70
2018-02-02T14:13:59.830Z,9.07
2018-02-02T14:16:29.380Z,19.17
2018-02-02T14:18:58.495Z,8.20
2018-02-02T14:21:27.596Z,5.43
2018-02-02T14:23:56.687Z,5.22
2018-02-02T14:26:26.280Z,4.35
2018-02-02T14:28:55.383Z,3.95
2018-02-02T14:31:24.562Z,4.15
2018-02-02T14:33:53.764Z,4.53
2018-02-02T14:36:23.014Z,4.73
2018-02-02T14:38:52.496Z,4.90
2018-02-02T14:41:22.988Z,4.78
2018-02-02T14:43:53.835Z,4.30
2018-02-02T14:46:24.690Z,4.12
2018-02-02T14:48:55.494Z,4.78
2018-02-02T14:51:26.907Z,4.70
2018-02-02T14:53:57.776Z,5.15
2018-02-02T14:56:28.647Z,4.68
2018-02-02T14:58:59.112Z,4.68
2018-02-02T15:01:29.998Z,4.87
2018-02-02T15:04:01.447Z,5.86
2018-02-02T15:06:31.982Z,5.45
2018-02-02T15:09:02.879Z,5.20
2018-02-02T15:11:34.417Z,7.78
2018-02-02T15:14:04.836Z,8.68
2018-02-02T15:16:36.022Z,17.27
2018-02-02T15:19:06.758Z,7.82
2018-02-02T15:21:37.646Z,7.05
2018-02-02T15:24:08.422Z,4.97
2018-02-02T15:26:39.875Z,5.32
2018-02-02T15:29:10.676Z,5.45
2018-02-02T15:31:42.756Z,5.68
2018-02-02T15:34:13.237Z,5.96
2018-02-02T15:36:43.852Z,6.22
2018-02-02T15:39:14.343Z,5.84
2018-02-02T15:41:44.989Z,6.95
2018-02-02T15:44:15.820Z,6.78
2018-02-02T15:46:46.882Z,8.88
2018-02-02T15:49:18.144Z,22.46
2018-02-02T15:51:48.903Z,10.02
2018-02-02T15:54:19.468Z,9.73
2018-02-02T15:56:50.888Z,8.84
2018-02-02T15:59:21.508Z,7.58
2018-02-02T16:01:56.966Z,8.23
2018-02-02T16:04:26.224Z,13.60
2018-02-02T16:06:55.344Z,27.87
2018-02-02T16:09:25.577Z,18.52
2018-02-02T16:11:56.540Z,11.15
2018-02-02T16:14:27.228Z,44.97
2018-02-02T16:16:57.897Z,528.72
2018-02-02T16:19:28.496Z,233.48
2018-02-02T16:21:59.847Z,21.25
2018-02-02T16:24:30.400Z,20.08
2018-02-02T16:27:01.679Z,25.85
2018-02-02T16:29:32.296Z,34.46
2018-02-02T16:32:02.979Z,15.30
2018-02-02T16:34:33.888Z,13.62
2018-02-02T16:37:04.319Z,13.65
2018-02-02T16:39:35.716Z,16.72
2018-02-02T16:42:06.418Z,20.10
2018-02-02T16:44:37.764Z,15.60
2018-02-02T16:47:10.135Z,17.02
2018-02-02T16:49:40.479Z,19.16
2018-02-02T16:52:10.748Z,12.70
2018-02-02T16:54:41.558Z,12.60
2018-02-02T16:57:12.706Z,14.74
2018-02-02T16:59:43.207Z,17.20
2018-02-02T17:02:15.760Z,17.80
2018-02-02T17:04:46.159Z,18.20
2018-02-02T17:07:16.743Z,14.75
2018-02-02T17:09:47.871Z,12.68
2018-02-02T17:12:18.923Z,8.55
2018-02-02T17:14:49.757Z,8.93
2018-02-02T17:17:20.248Z,10.78
2018-02-02T17:19:50.980Z,28.27
2018-02-02T17:22:21.859Z,36.75
2018-02-02T17:24:53.611Z,113.97
2018-02-02T17:27:24.506Z,144.57
2018-02-02T17:29:54.999Z,82.68
2018-02-02T17:32:25.775Z,26.12
2018-02-02T17:34:56.722Z,18.60
2018-02-02T17:37:27.137Z,16.65
2018-02-02T17:39:58.486Z,22.82
2018-02-02T17:42:28.944Z,17.65
2018-02-02T17:44:59.827Z,14.07
2018-02-02T17:47:30.764Z,15.30
2018-02-02T17:50:02.127Z,15.06
2018-02-02T17:52:33.041Z,13.10
2018-02-02T17:55:03.892Z,14.20
2018-02-02T17:57:34.992Z,15.43
2018-02-02T18:00:05.431Z,9.08
2018-02-02T18:05:39.168Z,8.80
2018-02-02T18:08:10.431Z,9.70
2018-02-02T18:10:39.516Z,8.90
2018-02-02T18:13:08.643Z,10.15
2018-02-02T18:15:37.799Z,12.23
2018-02-02T18:18:06.710Z,28.50
2018-02-02T18:20:35.809Z,18.23
2018-02-02T18:23:04.832Z,12.83
2018-02-02T18:25:33.816Z,14.17
2018-02-02T18:28:02.619Z,15.23
2018-02-02T18:30:31.785Z,13.40
2018-02-02T18:33:00.715Z,13.63
2018-02-02T18:35:29.270Z,15.73
2018-02-02T18:37:58.672Z,16.37
2018-02-02T18:40:28.058Z,37.78
2018-02-02T18:42:57.286Z,30.83
2018-02-02T18:45:26.480Z,28.98
2018-02-02T18:47:55.585Z,22.00
2018-02-02T18:50:24.940Z,18.10
2018-02-02T18:52:54.379Z,16.33
2018-02-02T18:55:23.599Z,15.77
2018-02-02T18:57:53.621Z,15.60
2018-02-02T19:00:24.157Z,14.80
2018-02-02T19:02:54.865Z,18.02
2018-02-02T19:05:25.745Z,116.82
2018-02-02T19:07:56.888Z,272.85
2018-02-02T19:10:27.521Z,301.94
2018-02-02T19:12:57.941Z,262.65
2018-02-02T19:15:28.863Z,116.72
2018-02-02T19:17:59.716Z,40.75
2018-02-02T19:20:30.720Z,42.97
2018-02-02T19:23:01.547Z,56.85
2018-02-02T19:25:33.167Z,86.26
2018-02-02T19:28:03.528Z,117.46
2018-02-02T19:30:33.974Z,55.42
2018-02-02T19:33:04.691Z,64.37
2018-02-02T19:35:36.161Z,70.42
2018-02-02T19:38:06.690Z,51.70
2018-02-02T19:40:38.123Z,47.30
2018-02-02T19:43:08.852Z,45.03
2018-02-02T19:45:39.890Z,38.62
2018-02-02T19:48:10.490Z,45.00
2018-02-02T19:50:41.381Z,38.92
2018-02-02T19:53:11.967Z,38.75
2018-02-02T19:55:42.771Z,30.65
2018-02-02T19:58:13.845Z,30.08
2018-02-02T20:00:43.839Z,36.83
2018-02-02T20:03:14.606Z,38.35
2018-02-02T20:05:45.470Z,41.78
2018-02-02T20:08:16.438Z,41.83
2018-02-02T20:10:47.184Z,29.58
2018-02-02T20:13:17.431Z,34.46
2018-02-02T20:15:47.778Z,35.58
2018-02-02T20:18:19.000Z,41.18
2018-02-02T20:20:50.195Z,43.30
2018-02-02T20:23:20.807Z,40.58
2018-02-02T20:25:51.854Z,41.33
2018-02-02T20:28:21.079Z,54.05
2018-02-02T20:30:51.058Z,69.97
2018-02-02T20:33:20.179Z,75.67
2018-02-02T20:35:49.314Z,66.82
2018-02-02T20:38:18.156Z,51.95
2018-02-02T20:40:46.712Z,53.27
2018-02-02T20:43:15.792Z,96.82
2018-02-02T20:45:44.834Z,91.03
2018-02-02T20:48:14.230Z,73.70
2018-02-02T20:50:43.345Z,58.33
2018-02-02T20:53:12.139Z,58.50
2018-02-02T20:55:41.023Z,67.97
2018-02-02T20:58:10.035Z,82.70
2018-02-02T21:00:39.070Z,81.03
2018-02-02T21:03:08.126Z,71.80
2018-02-02T21:05:36.948Z,55.10
2018-02-02T21:08:05.808Z,57.87
2018-02-02T21:10:34.893Z,61.90
2018-02-02T21:13:03.796Z,64.03
2018-02-02T21:15:32.766Z,62.70
2018-02-02T21:18:01.756Z,72.33
2018-02-02T21:20:30.781Z,70.80
2018-02-02T21:23:00.001Z,65.12
2018-02-02T21:25:28.864Z,64.00
2018-02-02T21:27:57.765Z,65.63
2018-02-02T21:30:26.712Z,63.73
2018-02-02T21:32:55.856Z,60.20
2018-02-02T21:35:24.807Z,63.10
2018-02-02T21:37:53.671Z,64.83
2018-02-02T21:40:22.908Z,72.80
2018-02-02T21:42:51.889Z,82.37
2018-02-02T21:45:20.801Z,82.97
2018-02-02T21:47:49.811Z,82.30
2018-02-02T21:50:18.929Z,74.43
2018-02-02T21:52:47.812Z,73.30
2018-02-02T21:55:16.939Z,81.13
2018-02-02T21:57:45.775Z,90.27
2018-02-02T22:00:14.568Z,89.47
2018-02-02T22:02:43.718Z,94.68
2018-02-02T22:05:12.813Z,105.37
2018-02-02T22:07:41.922Z,118.78
2018-02-02T22:10:10.820Z,101.57
2018-02-02T22:12:39.827Z,111.40
2018-02-02T22:15:08.792Z,106.17
2018-02-02T22:17:37.869Z,87.10
2018-02-02T22:20:06.544Z,75.97
2018-02-02T22:22:35.515Z,60.17
2018-02-02T22:25:04.707Z,58.58
2018-02-02T22:27:33.668Z,49.93
2018-02-02T22:30:02.742Z,42.80
2018-02-02T22:32:31.701Z,45.17
2018-02-02T22:35:00.768Z,46.87
2018-02-02T22:37:29.708Z,41.07
2018-02-02T22:39:58.958Z,34.10
2018-02-02T22:42:27.740Z,27.33
2018-02-02T22:44:56.533Z,24.67
2018-02-02T22:47:25.494Z,28.83
2018-02-02T22:49:54.626Z,25.62
2018-02-02T22:52:23.813Z,27.40
2018-02-02T22:54:53.092Z,27.85
2018-02-02T22:57:21.926Z,25.50
2018-02-02T22:59:50.761Z,24.17
2018-02-02T23:02:19.788Z,21.50
2018-02-02T23:04:48.668Z,22.60
2018-02-02T23:07:17.728Z,19.53
2018-02-02T23:09:46.883Z,18.80
2018-02-02T23:12:15.808Z,18.57
2018-02-02T23:14:44.640Z,16.80
2018-02-02T23:17:13.837Z,16.60
2018-02-02T23:19:42.427Z,17.33
2018-02-02T23:22:11.488Z,17.65
2018-02-02T23:24:40.636Z,18.15
2018-02-02T23:27:09.721Z,21.27
2018-02-02T23:29:38.984Z,18.48
2018-02-02T23:32:08.206Z,17.70
2018-02-02T23:34:37.341Z,16.75
2018-02-02T23:37:06.317Z,17.47
2018-02-02T23:39:36.547Z,17.40
2018-02-02T23:42:07.018Z,17.65
2018-02-02T23:44:38.459Z,17.34
2018-02-02T23:47:10.192Z,18.50
2018-02-02T23:49:39.559Z,17.57
2018-02-02T23:52:10.023Z,18.08
2018-02-02T23:54:40.899Z,18.40
2018-02-02T23:57:11.732Z,20.73
2018-02-02T23:59:42.664Z,18.10
